sensor_id;sensor_type;location;lat;lon;timestamp;P1;durP1;ratioP1;P2;durP2;ratioP2
75916;SDS011;64595;50.148;14.334;2023-07-20T00:00:21;6.20;;;3.67;;
75916;SDS011;64595;50.148;14.334;2023-07-20T00:02:49;6.97;;;3.85;;
75916;SDS011;64595;50.148;14.334;2023-07-20T00:05:17;4.70;;;3.67;;
75916;SDS011;64595;50.148;14.334;2023-07-20T00:07:42;5.20;;;3.00;;
75916;SDS011;64595;50.148;14.334;2023-07-20T00:10:08;6.18;;;3.50;;
75916;SDS011;64595;50.148;14.334;2023-07-20T00:12:34;6.85;;;3.40;;
75916;SDS011;64595;50.148;14.334;2023-07-20T00:14:59;7.10;;;3.88;;
75916;SDS011;64595;50.148;14.334;2023-07-20T00:17:25;6.80;;;3.60;;
75916;SDS011;64595;50.148;14.334;2023-07-20T00:19:50;7.45;;;3.30;;
75916;SDS011;64595;50.148;14.334;2023-07-20T00:22:17;5.18;;;3.65;;
75916;SDS011;64595;50.148;14.334;2023-07-20T00:24:43;6.00;;;3.60;;
75916;SDS011;64595;50.148;14.334;2023-07-20T00:27:08;5.38;;;3.42;;
75916;SDS011;64595;50.148;14.334;2023-07-20T00:29:34;6.50;;;4.00;;
75916;SDS011;64595;50.148;14.334;2023-07-20T00:31:59;5.68;;;3.92;;
75916;SDS011;64595;50.148;14.334;2023-07-20T00:34:24;8.50;;;3.70;;
75916;SDS011;64595;50.148;14.334;2023-07-20T00:36:53;5.28;;;3.70;;
75916;SDS011;64595;50.148;14.334;2023-07-20T00:39:20;5.32;;;3.63;;
75916;SDS011;64595;50.148;14.334;2023-07-20T00:41:45;6.43;;;3.88;;
75916;SDS011;64595;50.148;14.334;2023-07-20T00:44:11;8.02;;;4.07;;
75916;SDS011;64595;50.148;14.334;2023-07-20T00:46:36;7.15;;;4.15;;
75916;SDS011;64595;50.148;14.334;2023-07-20T00:49:02;6.28;;;3.80;;
75916;SDS011;64595;50.148;14.334;2023-07-20T00:51:27;7.72;;;4.05;;
75916;SDS011;64595;50.148;14.334;2023-07-20T00:53:53;6.50;;;3.80;;
75916;SDS011;64595;50.148;14.334;2023-07-20T00:56:20;7.80;;;3.90;;
75916;SDS011;64595;50.148;14.334;2023-07-20T00:58:46;9.60;;;4.13;;
75916;SDS011;64595;50.148;14.334;2023-07-20T01:01:12;7.82;;;3.78;;
75916;SDS011;64595;50.148;14.334;2023-07-20T01:03:37;7.68;;;4.30;;
75916;SDS011;64595;50.148;14.334;2023-07-20T01:06:05;7.15;;;4.18;;
75916;SDS011;64595;50.148;14.334;2023-07-20T01:08:37;5.53;;;3.70;;
75916;SDS011;64595;50.148;14.334;2023-07-20T01:11:08;5.68;;;4.57;;
75916;SDS011;64595;50.148;14.334;2023-07-20T01:13:37;7.75;;;3.78;;
75916;SDS011;64595;50.148;14.334;2023-07-20T01:16:03;8.45;;;4.45;;
75916;SDS011;64595;50.148;14.334;2023-07-20T01:18:28;8.55;;;4.20;;
75916;SDS011;64595;50.148;14.334;2023-07-20T01:20:55;5.93;;;4.28;;
75916;SDS011;64595;50.148;14.334;2023-07-20T01:26:38;7.38;;;3.92;;
75916;SDS011;64595;50.148;14.334;2023-07-20T01:29:21;6.40;;;4.80;;
75916;SDS011;64595;50.148;14.334;2023-07-20T01:31:48;5.15;;;3.75;;
75916;SDS011;64595;50.148;14.334;2023-07-20T01:34:17;6.82;;;4.13;;
75916;SDS011;64595;50.148;14.334;2023-07-20T01:36:43;6.90;;;4.30;;
75916;SDS011;64595;50.148;14.334;2023-07-20T01:39:09;7.15;;;4.68;;
75916;SDS011;64595;50.148;14.334;2023-07-20T01:41:35;8.07;;;4.88;;
75916;SDS011;64595;50.148;14.334;2023-07-20T01:44:03;8.23;;;4.93;;
75916;SDS011;64595;50.148;14.334;2023-07-20T01:46:28;6.45;;;4.50;;
75916;SDS011;64595;50.148;14.334;2023-07-20T01:48:55;8.07;;;3.80;;
75916;SDS011;64595;50.148;14.334;2023-07-20T01:51:21;8.15;;;4.55;;
75916;SDS011;64595;50.148;14.334;2023-07-20T01:53:46;6.05;;;4.80;;
75916;SDS011;64595;50.148;14.334;2023-07-20T01:56:12;9.07;;;4.55;;
75916;SDS011;64595;50.148;14.334;2023-07-20T01:58:37;11.05;;;4.70;;
75916;SDS011;64595;50.148;14.334;2023-07-20T02:01:03;5.68;;;4.28;;
75916;SDS011;64595;50.148;14.334;2023-07-20T02:03:28;7.38;;;4.40;;
75916;SDS011;64595;50.148;14.334;2023-07-20T02:05:55;6.95;;;4.43;;
75916;SDS011;64595;50.148;14.334;2023-07-20T02:08:20;5.68;;;4.10;;
75916;SDS011;64595;50.148;14.334;2023-07-20T02:10:46;5.47;;;4.13;;
75916;SDS011;64595;50.148;14.334;2023-07-20T02:13:14;6.10;;;4.20;;
75916;SDS011;64595;50.148;14.334;2023-07-20T02:15:40;7.20;;;4.63;;
75916;SDS011;64595;50.148;14.334;2023-07-20T02:18:06;5.45;;;4.03;;
75916;SDS011;64595;50.148;14.334;2023-07-20T02:20:32;6.78;;;4.20;;
75916;SDS011;64595;50.148;14.334;2023-07-20T02:22:58;6.28;;;4.97;;
75916;SDS011;64595;50.148;14.334;2023-07-20T02:25:24;6.22;;;4.35;;
75916;SDS011;64595;50.148;14.334;2023-07-20T02:27:49;6.72;;;4.72;;
75916;SDS011;64595;50.148;14.334;2023-07-20T02:30:15;8.82;;;4.80;;
75916;SDS011;64595;50.148;14.334;2023-07-20T02:32:40;7.72;;;4.70;;
75916;SDS011;64595;50.148;14.334;2023-07-20T02:35:06;7.60;;;4.53;;
75916;SDS011;64595;50.148;14.334;2023-07-20T02:37:32;6.75;;;4.57;;
75916;SDS011;64595;50.148;14.334;2023-07-20T02:39:58;10.65;;;4.90;;
75916;SDS011;64595;50.148;14.334;2023-07-20T02:42:24;5.88;;;4.20;;
75916;SDS011;64595;50.148;14.334;2023-07-20T02:44:49;7.38;;;5.07;;
75916;SDS011;64595;50.148;14.334;2023-07-20T02:47:15;7.18;;;4.45;;
75916;SDS011;64595;50.148;14.334;2023-07-20T02:49:40;8.10;;;4.53;;
75916;SDS011;64595;50.148;14.334;2023-07-20T02:52:06;8.00;;;4.30;;
75916;SDS011;64595;50.148;14.334;2023-07-20T02:54:31;8.98;;;4.72;;
75916;SDS011;64595;50.148;14.334;2023-07-20T02:56:58;9.52;;;5.10;;
75916;SDS011;64595;50.148;14.334;2023-07-20T02:59:24;7.28;;;4.75;;
75916;SDS011;64595;50.148;14.334;2023-07-20T03:01:49;6.90;;;4.30;;
75916;SDS011;64595;50.148;14.334;2023-07-20T03:04:15;6.65;;;4.80;;
75916;SDS011;64595;50.148;14.334;2023-07-20T03:06:40;6.53;;;5.15;;
75916;SDS011;64595;50.148;14.334;2023-07-20T03:09:05;7.00;;;4.88;;
75916;SDS011;64595;50.148;14.334;2023-07-20T03:11:31;8.45;;;5.38;;
75916;SDS011;64595;50.148;14.334;2023-07-20T03:13:59;8.70;;;5.38;;
75916;SDS011;64595;50.148;14.334;2023-07-20T03:16:24;7.70;;;5.00;;
75916;SDS011;64595;50.148;14.334;2023-07-20T03:18:49;11.25;;;6.13;;
75916;SDS011;64595;50.148;14.334;2023-07-20T03:21:15;10.65;;;6.00;;
75916;SDS011;64595;50.148;14.334;2023-07-20T03:23:40;6.45;;;4.90;;
75916;SDS011;64595;50.148;14.334;2023-07-20T03:26:06;10.32;;;5.85;;
75916;SDS011;64595;50.148;14.334;2023-07-20T03:28:31;9.25;;;5.15;;
75916;SDS011;64595;50.148;14.334;2023-07-20T03:30:58;8.98;;;5.43;;
75916;SDS011;64595;50.148;14.334;2023-07-20T03:33:26;8.65;;;5.75;;
75916;SDS011;64595;50.148;14.334;2023-07-20T03:35:52;7.63;;;5.05;;
75916;SDS011;64595;50.148;14.334;2023-07-20T03:38:18;8.45;;;5.20;;
75916;SDS011;64595;50.148;14.334;2023-07-20T03:40:49;5.25;;;4.22;;
75916;SDS011;64595;50.148;14.334;2023-07-20T03:43:15;8.13;;;4.57;;
75916;SDS011;64595;50.148;14.334;2023-07-20T03:45:40;8.13;;;5.10;;
75916;SDS011;64595;50.148;14.334;2023-07-20T03:48:07;8.93;;;4.47;;
75916;SDS011;64595;50.148;14.334;2023-07-20T03:50:32;5.82;;;4.45;;
75916;SDS011;64595;50.148;14.334;2023-07-20T03:52:58;8.45;;;5.05;;
75916;SDS011;64595;50.148;14.334;2023-07-20T03:55:23;5.97;;;4.43;;
75916;SDS011;64595;50.148;14.334;2023-07-20T03:57:49;6.78;;;4.57;;
75916;SDS011;64595;50.148;14.334;2023-07-20T04:00:15;5.50;;;4.90;;
75916;SDS011;64595;50.148;14.334;2023-07-20T04:02:40;7.68;;;4.70;;
75916;SDS011;64595;50.148;14.334;2023-07-20T04:05:07;7.63;;;4.82;;
75916;SDS011;64595;50.148;14.334;2023-07-20T04:07:33;6.82;;;5.03;;
75916;SDS011;64595;50.148;14.334;2023-07-20T04:09:59;11.82;;;6.10;;
75916;SDS011;64595;50.148;14.334;2023-07-20T04:12:24;8.20;;;5.93;;
75916;SDS011;64595;50.148;14.334;2023-07-20T04:14:50;8.48;;;5.13;;
75916;SDS011;64595;50.148;14.334;2023-07-20T04:17:15;7.25;;;5.68;;
75916;SDS011;64595;50.148;14.334;2023-07-20T04:19:41;6.43;;;4.70;;
75916;SDS011;64595;50.148;14.334;2023-07-20T04:22:08;6.88;;;5.30;;
75916;SDS011;64595;50.148;14.334;2023-07-20T04:24:33;7.78;;;5.63;;
75916;SDS011;64595;50.148;14.334;2023-07-20T04:26:59;7.47;;;5.28;;
75916;SDS011;64595;50.148;14.334;2023-07-20T04:29:24;6.38;;;4.80;;
75916;SDS011;64595;50.148;14.334;2023-07-20T04:31:50;6.88;;;5.47;;
75916;SDS011;64595;50.148;14.334;2023-07-20T04:34:15;7.28;;;5.25;;
75916;SDS011;64595;50.148;14.334;2023-07-20T04:36:40;10.77;;;5.75;;
75916;SDS011;64595;50.148;14.334;2023-07-20T04:39:07;10.48;;;5.18;;
75916;SDS011;64595;50.148;14.334;2023-07-20T04:41:34;7.72;;;5.63;;
75916;SDS011;64595;50.148;14.334;2023-07-20T04:44:00;10.07;;;5.72;;
75916;SDS011;64595;50.148;14.334;2023-07-20T04:46:25;7.15;;;5.72;;
75916;SDS011;64595;50.148;14.334;2023-07-20T04:48:50;8.18;;;5.38;;
75916;SDS011;64595;50.148;14.334;2023-07-20T04:51:16;8.93;;;5.13;;
75916;SDS011;64595;50.148;14.334;2023-07-20T04:53:42;10.13;;;5.28;;
75916;SDS011;64595;50.148;14.334;2023-07-20T04:56:09;8.23;;;5.28;;
75916;SDS011;64595;50.148;14.334;2023-07-20T04:58:35;6.80;;;5.10;;
75916;SDS011;64595;50.148;14.334;2023-07-20T05:01:00;8.00;;;5.18;;
75916;SDS011;64595;50.148;14.334;2023-07-20T05:03:26;6.38;;;5.10;;
75916;SDS011;64595;50.148;14.334;2023-07-20T05:05:51;10.27;;;6.05;;
75916;SDS011;64595;50.148;14.334;2023-07-20T05:08:23;7.15;;;4.80;;
75916;SDS011;64595;50.148;14.334;2023-07-20T05:10:49;7.55;;;4.80;;
75916;SDS011;64595;50.148;14.334;2023-07-20T05:13:16;7.82;;;5.32;;
75916;SDS011;64595;50.148;14.334;2023-07-20T05:15:41;6.68;;;5.20;;
75916;SDS011;64595;50.148;14.334;2023-07-20T05:18:06;8.10;;;5.97;;
75916;SDS011;64595;50.148;14.334;2023-07-20T05:20:32;8.18;;;5.57;;
75916;SDS011;64595;50.148;14.334;2023-07-20T05:22:57;6.68;;;4.95;;
75916;SDS011;64595;50.148;14.334;2023-07-20T05:25:23;9.07;;;5.43;;
75916;SDS011;64595;50.148;14.334;2023-07-20T05:27:48;6.32;;;5.30;;
75916;SDS011;64595;50.148;14.334;2023-07-20T05:30:15;6.38;;;5.30;;
75916;SDS011;64595;50.148;14.334;2023-07-20T05:32:41;8.63;;;4.47;;
75916;SDS011;64595;50.148;14.334;2023-07-20T05:35:07;5.97;;;4.50;;
75916;SDS011;64595;50.148;14.334;2023-07-20T05:37:33;6.30;;;4.90;;
75916;SDS011;64595;50.148;14.334;2023-07-20T05:39:58;8.30;;;4.90;;
75916;SDS011;64595;50.148;14.334;2023-07-20T05:42:24;6.55;;;4.72;;
75916;SDS011;64595;50.148;14.334;2023-07-20T05:44:49;5.60;;;4.53;;
75916;SDS011;64595;50.148;14.334;2023-07-20T05:47:16;6.20;;;4.38;;
75916;SDS011;64595;50.148;14.334;2023-07-20T05:49:41;7.30;;;4.43;;
75916;SDS011;64595;50.148;14.334;2023-07-20T05:52:07;8.13;;;5.32;;
75916;SDS011;64595;50.148;14.334;2023-07-20T05:54:32;7.32;;;4.57;;
75916;SDS011;64595;50.148;14.334;2023-07-20T05:56:58;7.50;;;4.85;;
75916;SDS011;64595;50.148;14.334;2023-07-20T05:59:24;8.23;;;4.50;;
75916;SDS011;64595;50.148;14.334;2023-07-20T06:01:51;6.22;;;4.47;;
75916;SDS011;64595;50.148;14.334;2023-07-20T06:06:43;6.47;;;4.13;;
75916;SDS011;64595;50.148;14.334;2023-07-20T06:09:09;8.25;;;3.83;;
75916;SDS011;64595;50.148;14.334;2023-07-20T06:11:34;5.70;;;4.13;;
75916;SDS011;64595;50.148;14.334;2023-07-20T06:14:00;5.28;;;4.20;;
75916;SDS011;64595;50.148;14.334;2023-07-20T06:16:25;5.57;;;3.70;;
75916;SDS011;64595;50.148;14.334;2023-07-20T06:18:51;5.75;;;3.80;;
75916;SDS011;64595;50.148;14.334;2023-07-20T06:21:18;8.15;;;3.70;;
75916;SDS011;64595;50.148;14.334;2023-07-20T06:23:43;7.15;;;3.80;;
75916;SDS011;64595;50.148;14.334;2023-07-20T06:26:08;5.85;;;3.28;;
75916;SDS011;64595;50.148;14.334;2023-07-20T06:28:34;6.55;;;3.92;;
75916;SDS011;64595;50.148;14.334;2023-07-20T06:31:00;5.25;;;3.92;;
75916;SDS011;64595;50.148;14.334;2023-07-20T06:33:26;6.07;;;3.63;;
75916;SDS011;64595;50.148;14.334;2023-07-20T06:35:52;5.70;;;3.90;;
75916;SDS011;64595;50.148;14.334;2023-07-20T06:38:19;5.18;;;3.67;;
75916;SDS011;64595;50.148;14.334;2023-07-20T06:40:45;5.95;;;3.65;;
75916;SDS011;64595;50.148;14.334;2023-07-20T06:43:11;6.03;;;3.55;;
75916;SDS011;64595;50.148;14.334;2023-07-20T06:45:36;7.00;;;3.30;;
75916;SDS011;64595;50.148;14.334;2023-07-20T06:48:02;5.35;;;3.35;;
75916;SDS011;64595;50.148;14.334;2023-07-20T06:50:27;4.97;;;3.33;;
75916;SDS011;64595;50.148;14.334;2023-07-20T06:52:53;5.18;;;2.88;;
75916;SDS011;64595;50.148;14.334;2023-07-20T06:55:20;6.20;;;3.30;;
75916;SDS011;64595;50.148;14.334;2023-07-20T06:57:45;5.55;;;3.47;;
75916;SDS011;64595;50.148;14.334;2023-07-20T07:00:11;3.60;;;2.88;;
75916;SDS011;64595;50.148;14.334;2023-07-20T07:02:37;6.35;;;2.92;;
75916;SDS011;64595;50.148;14.334;2023-07-20T07:05:03;5.78;;;3.30;;
75916;SDS011;64595;50.148;14.334;2023-07-20T07:07:29;5.15;;;3.10;;
75916;SDS011;64595;50.148;14.334;2023-07-20T07:09:55;4.65;;;3.03;;
75916;SDS011;64595;50.148;14.334;2023-07-20T07:12:21;7.07;;;2.92;;
75916;SDS011;64595;50.148;14.334;2023-07-20T07:14:47;4.90;;;2.75;;
75916;SDS011;64595;50.148;14.334;2023-07-20T07:17:12;4.57;;;2.72;;
75916;SDS011;64595;50.148;14.334;2023-07-20T07:19:38;4.25;;;2.80;;
75916;SDS011;64595;50.148;14.334;2023-07-20T07:22:04;3.67;;;2.70;;
75916;SDS011;64595;50.148;14.334;2023-07-20T07:24:29;4.43;;;3.20;;
75916;SDS011;64595;50.148;14.334;2023-07-20T07:26:55;6.28;;;3.00;;
75916;SDS011;64595;50.148;14.334;2023-07-20T07:29:21;5.82;;;2.90;;
75916;SDS011;64595;50.148;14.334;2023-07-20T07:31:47;4.22;;;2.65;;
75916;SDS011;64595;50.148;14.334;2023-07-20T07:34:12;5.22;;;3.10;;
75916;SDS011;64595;50.148;14.334;2023-07-20T07:36:38;4.55;;;3.20;;
75916;SDS011;64595;50.148;14.334;2023-07-20T07:39:04;4.90;;;3.35;;
75916;SDS011;64595;50.148;14.334;2023-07-20T07:41:32;7.13;;;3.00;;
75916;SDS011;64595;50.148;14.334;2023-07-20T07:43:57;4.38;;;2.53;;
75916;SDS011;64595;50.148;14.334;2023-07-20T07:46:24;3.17;;;2.50;;
75916;SDS011;64595;50.148;14.334;2023-07-20T07:48:50;4.53;;;2.47;;
75916;SDS011;64595;50.148;14.334;2023-07-20T07:51:18;3.42;;;2.60;;
75916;SDS011;64595;50.148;14.334;2023-07-20T07:53:44;3.28;;;2.42;;
75916;SDS011;64595;50.148;14.334;2023-07-20T07:56:10;4.13;;;2.60;;
75916;SDS011;64595;50.148;14.334;2023-07-20T07:58:36;3.38;;;2.30;;
75916;SDS011;64595;50.148;14.334;2023-07-20T08:01:01;3.38;;;2.25;;
75916;SDS011;64595;50.148;14.334;2023-07-20T08:03:28;4.20;;;3.10;;
75916;SDS011;64595;50.148;14.334;2023-07-20T08:05:54;5.53;;;2.85;;
75916;SDS011;64595;50.148;14.334;2023-07-20T08:08:19;4.65;;;2.70;;
75916;SDS011;64595;50.148;14.334;2023-07-20T08:10:45;3.80;;;2.78;;
75916;SDS011;64595;50.148;14.334;2023-07-20T08:13:10;4.57;;;2.95;;
75916;SDS011;64595;50.148;14.334;2023-07-20T08:15:36;5.50;;;3.00;;
75916;SDS011;64595;50.148;14.334;2023-07-20T08:18:02;4.13;;;3.00;;
75916;SDS011;64595;50.148;14.334;2023-07-20T08:20:29;7.28;;;3.22;;
75916;SDS011;64595;50.148;14.334;2023-07-20T08:22:54;7.68;;;3.10;;
75916;SDS011;64595;50.148;14.334;2023-07-20T08:25:20;3.33;;;2.80;;
75916;SDS011;64595;50.148;14.334;2023-07-20T08:27:45;3.85;;;2.50;;
75916;SDS011;64595;50.148;14.334;2023-07-20T08:30:11;4.60;;;2.53;;
75916;SDS011;64595;50.148;14.334;2023-07-20T08:32:36;4.90;;;2.40;;
75916;SDS011;64595;50.148;14.334;2023-07-20T08:35:02;5.30;;;2.70;;
75916;SDS011;64595;50.148;14.334;2023-07-20T08:37:29;4.95;;;2.38;;
75916;SDS011;64595;50.148;14.334;2023-07-20T08:39:55;3.80;;;2.65;;
75916;SDS011;64595;50.148;14.334;2023-07-20T08:42:20;4.97;;;2.75;;
75916;SDS011;64595;50.148;14.334;2023-07-20T08:44:47;3.90;;;2.88;;
75916;SDS011;64595;50.148;14.334;2023-07-20T08:47:13;3.97;;;2.42;;
75916;SDS011;64595;50.148;14.334;2023-07-20T08:49:39;6.35;;;3.63;;
75916;SDS011;64595;50.148;14.334;2023-07-20T08:52:04;5.35;;;2.85;;
75916;SDS011;64595;50.148;14.334;2023-07-20T08:54:32;4.65;;;2.40;;
75916;SDS011;64595;50.148;14.334;2023-07-20T08:56:59;5.43;;;2.60;;
75916;SDS011;64595;50.148;14.334;2023-07-20T08:59:27;6.57;;;2.90;;
75916;SDS011;64595;50.148;14.334;2023-07-20T09:01:54;6.15;;;2.92;;
75916;SDS011;64595;50.148;14.334;2023-07-20T09:04:20;3.42;;;2.25;;
75916;SDS011;64595;50.148;14.334;2023-07-20T09:06:46;3.90;;;2.33;;
75916;SDS011;64595;50.148;14.334;2023-07-20T09:09:12;7.30;;;2.38;;
75916;SDS011;64595;50.148;14.334;2023-07-20T09:11:38;4.47;;;3.00;;
75916;SDS011;64595;50.148;14.334;2023-07-20T09:14:05;4.70;;;2.72;;
75916;SDS011;64595;50.148;14.334;2023-07-20T09:16:32;4.70;;;2.50;;
75916;SDS011;64595;50.148;14.334;2023-07-20T09:18:58;4.07;;;3.33;;
75916;SDS011;64595;50.148;14.334;2023-07-20T09:21:23;4.53;;;2.97;;
75916;SDS011;64595;50.148;14.334;2023-07-20T09:23:54;6.63;;;3.00;;
75916;SDS011;64595;50.148;14.334;2023-07-20T09:26:21;6.00;;;3.13;;
75916;SDS011;64595;50.148;14.334;2023-07-20T09:28:51;6.65;;;5.05;;
75916;SDS011;64595;50.148;14.334;2023-07-20T09:31:17;2.80;;;2.42;;
75916;SDS011;64595;50.148;14.334;2023-07-20T09:33:43;4.78;;;2.90;;
75916;SDS011;64595;50.148;14.334;2023-07-20T09:36:09;3.78;;;2.47;;
75916;SDS011;64595;50.148;14.334;2023-07-20T09:38:34;10.80;;;6.25;;
75916;SDS011;64595;50.148;14.334;2023-07-20T09:41:01;6.20;;;3.28;;
75916;SDS011;64595;50.148;14.334;2023-07-20T09:43:28;5.70;;;2.80;;
75916;SDS011;64595;50.148;14.334;2023-07-20T09:45:56;3.60;;;2.35;;
75916;SDS011;64595;50.148;14.334;2023-07-20T09:48:25;4.43;;;2.53;;
75916;SDS011;64595;50.148;14.334;2023-07-20T09:50:51;3.40;;;2.50;;
75916;SDS011;64595;50.148;14.334;2023-07-20T09:53:17;4.00;;;2.72;;
75916;SDS011;64595;50.148;14.334;2023-07-20T09:55:44;4.97;;;2.45;;
75916;SDS011;64595;50.148;14.334;2023-07-20T09:58:09;4.13;;;2.50;;
75916;SDS011;64595;50.148;14.334;2023-07-20T10:00:36;5.72;;;2.70;;
75916;SDS011;64595;50.148;14.334;2023-07-20T10:03:03;7.75;;;2.63;;
75916;SDS011;64595;50.148;14.334;2023-07-20T10:05:30;3.05;;;2.25;;
75916;SDS011;64595;50.148;14.334;2023-07-20T10:07:58;3.72;;;2.70;;
75916;SDS011;64595;50.148;14.334;2023-07-20T10:10:24;5.03;;;2.17;;
75916;SDS011;64595;50.148;14.334;2023-07-20T10:12:50;5.63;;;2.83;;
75916;SDS011;64595;50.148;14.334;2023-07-20T10:15:17;4.18;;;2.30;;
75916;SDS011;64595;50.148;14.334;2023-07-20T10:17:48;5.32;;;2.50;;
75916;SDS011;64595;50.148;14.334;2023-07-20T10:20:20;3.53;;;2.45;;
75916;SDS011;64595;50.148;14.334;2023-07-20T10:22:45;3.30;;;2.20;;
75916;SDS011;64595;50.148;14.334;2023-07-20T10:25:12;2.80;;;2.47;;
75916;SDS011;64595;50.148;14.334;2023-07-20T10:27:38;4.70;;;2.50;;
75916;SDS011;64595;50.148;14.334;2023-07-20T10:30:04;4.22;;;2.60;;
75916;SDS011;64595;50.148;14.334;2023-07-20T10:32:31;4.18;;;2.58;;
75916;SDS011;64595;50.148;14.334;2023-07-20T10:34:56;3.88;;;2.80;;
75916;SDS011;64595;50.148;14.334;2023-07-20T10:40:29;3.47;;;2.72;;
75916;SDS011;64595;50.148;14.334;2023-07-20T10:42:56;5.45;;;2.55;;
75916;SDS011;64595;50.148;14.334;2023-07-20T10:45:32;4.75;;;2.83;;
75916;SDS011;64595;50.148;14.334;2023-07-20T10:47:58;6.55;;;3.05;;
75916;SDS011;64595;50.148;14.334;2023-07-20T10:50:24;6.78;;;2.70;;
75916;SDS011;64595;50.148;14.334;2023-07-20T10:55:32;3.25;;;2.55;;
75916;SDS011;64595;50.148;14.334;2023-07-20T10:58:06;3.03;;;2.33;;
75916;SDS011;64595;50.148;14.334;2023-07-20T11:00:32;3.92;;;2.55;;
75916;SDS011;64595;50.148;14.334;2023-07-20T11:02:58;2.95;;;2.40;;
75916;SDS011;64595;50.148;14.334;2023-07-20T11:05:33;3.60;;;2.85;;
75916;SDS011;64595;50.148;14.334;2023-07-20T11:08:00;4.57;;;2.53;;
75916;SDS011;64595;50.148;14.334;2023-07-20T11:10:27;4.25;;;2.47;;
75916;SDS011;64595;50.148;14.334;2023-07-20T11:15:44;5.32;;;2.38;;
75916;SDS011;64595;50.148;14.334;2023-07-20T11:18:13;3.75;;;2.70;;
75916;SDS011;64595;50.148;14.334;2023-07-20T11:20:39;6.32;;;2.70;;
75916;SDS011;64595;50.148;14.334;2023-07-20T11:23:05;3.88;;;2.88;;
75916;SDS011;64595;50.148;14.334;2023-07-20T11:25:37;6.97;;;2.65;;
75916;SDS011;64595;50.148;14.334;2023-07-20T11:28:06;4.15;;;2.60;;
75916;SDS011;64595;50.148;14.334;2023-07-20T11:30:32;4.10;;;2.70;;
75916;SDS011;64595;50.148;14.334;2023-07-20T11:32:58;8.00;;;3.08;;
75916;SDS011;64595;50.148;14.334;2023-07-20T11:35:23;4.47;;;2.67;;
75916;SDS011;64595;50.148;14.334;2023-07-20T11:37:49;4.80;;;3.15;;
75916;SDS011;64595;50.148;14.334;2023-07-20T11:40:14;3.20;;;2.63;;
75916;SDS011;64595;50.148;14.334;2023-07-20T11:42:42;3.10;;;2.10;;
75916;SDS011;64595;50.148;14.334;2023-07-20T11:45:08;5.57;;;2.60;;
75916;SDS011;64595;50.148;14.334;2023-07-20T11:47:34;4.43;;;2.50;;
75916;SDS011;64595;50.148;14.334;2023-07-20T11:50:05;3.47;;;2.45;;
75916;SDS011;64595;50.148;14.334;2023-07-20T11:52:40;3.08;;;2.40;;
75916;SDS011;64595;50.148;14.334;2023-07-20T11:55:06;3.38;;;2.30;;
75916;SDS011;64595;50.148;14.334;2023-07-20T12:00:00;4.53;;;2.37;;
75916;SDS011;64595;50.148;14.334;2023-07-20T12:02:27;4.07;;;2.35;;
75916;SDS011;64595;50.148;14.334;2023-07-20T12:04:53;3.65;;;2.50;;
75916;SDS011;64595;50.148;14.334;2023-07-20T12:07:19;3.55;;;2.28;;
75916;SDS011;64595;50.148;14.334;2023-07-20T12:09:45;5.20;;;2.58;;
75916;SDS011;64595;50.148;14.334;2023-07-20T12:12:10;3.55;;;2.47;;
75916;SDS011;64595;50.148;14.334;2023-07-20T12:14:36;3.00;;;2.10;;
75916;SDS011;64595;50.148;14.334;2023-07-20T12:17:03;6.75;;;3.05;;
75916;SDS011;64595;50.148;14.334;2023-07-20T12:19:28;5.28;;;2.72;;
75916;SDS011;64595;50.148;14.334;2023-07-20T12:21:56;3.83;;;2.88;;
75916;SDS011;64595;50.148;14.334;2023-07-20T12:24:23;4.00;;;2.50;;
75916;SDS011;64595;50.148;14.334;2023-07-20T12:26:48;3.50;;;2.30;;
75916;SDS011;64595;50.148;14.334;2023-07-20T12:29:14;4.00;;;2.20;;
75916;SDS011;64595;50.148;14.334;2023-07-20T12:31:39;3.67;;;2.15;;
75916;SDS011;64595;50.148;14.334;2023-07-20T12:34:06;3.90;;;2.00;;
75916;SDS011;64595;50.148;14.334;2023-07-20T12:36:31;3.42;;;2.42;;
75916;SDS011;64595;50.148;14.334;2023-07-20T12:38:57;4.75;;;2.30;;
75916;SDS011;64595;50.148;14.334;2023-07-20T12:41:22;3.45;;;2.30;;
75916;SDS011;64595;50.148;14.334;2023-07-20T12:43:48;3.25;;;2.10;;
75916;SDS011;64595;50.148;14.334;2023-07-20T12:46:13;3.80;;;2.20;;
75916;SDS011;64595;50.148;14.334;2023-07-20T12:48:39;4.00;;;2.33;;
75916;SDS011;64595;50.148;14.334;2023-07-20T12:51:07;3.83;;;2.20;;
75916;SDS011;64595;50.148;14.334;2023-07-20T12:55:57;3.30;;;2.10;;
75916;SDS011;64595;50.148;14.334;2023-07-20T12:58:23;4.15;;;2.30;;
75916;SDS011;64595;50.148;14.334;2023-07-20T13:00:48;5.18;;;2.60;;
75916;SDS011;64595;50.148;14.334;2023-07-20T13:03:14;3.55;;;2.20;;
75916;SDS011;64595;50.148;14.334;2023-07-20T13:05:40;4.15;;;2.65;;
75916;SDS011;64595;50.148;14.334;2023-07-20T13:08:06;2.85;;;2.10;;
75916;SDS011;64595;50.148;14.334;2023-07-20T13:10:32;3.42;;;2.03;;
75916;SDS011;64595;50.148;14.334;2023-07-20T13:12:57;4.13;;;2.25;;
75916;SDS011;64595;50.148;14.334;2023-07-20T13:15:24;5.75;;;2.53;;
75916;SDS011;64595;50.148;14.334;2023-07-20T13:17:54;5.95;;;2.42;;
75916;SDS011;64595;50.148;14.334;2023-07-20T13:20:20;5.22;;;2.10;;
75916;SDS011;64595;50.148;14.334;2023-07-20T13:22:45;3.97;;;2.20;;
75916;SDS011;64595;50.148;14.334;2023-07-20T13:25:12;4.22;;;2.33;;
75916;SDS011;64595;50.148;14.334;2023-07-20T13:27:38;4.32;;;2.20;;
75916;SDS011;64595;50.148;14.334;2023-07-20T13:30:03;6.18;;;2.30;;
75916;SDS011;64595;50.148;14.334;2023-07-20T13:34:55;2.80;;;2.20;;
75916;SDS011;64595;50.148;14.334;2023-07-20T13:37:20;5.28;;;2.50;;
75916;SDS011;64595;50.148;14.334;2023-07-20T13:39:46;3.10;;;2.10;;
75916;SDS011;64595;50.148;14.334;2023-07-20T13:42:13;3.38;;;2.42;;
75916;SDS011;64595;50.148;14.334;2023-07-20T13:44:38;4.18;;;2.53;;
75916;SDS011;64595;50.148;14.334;2023-07-20T13:47:04;2.53;;;1.95;;
75916;SDS011;64595;50.148;14.334;2023-07-20T13:49:30;3.22;;;2.30;;
75916;SDS011;64595;50.148;14.334;2023-07-20T13:51:55;3.60;;;2.30;;
75916;SDS011;64595;50.148;14.334;2023-07-20T13:54:21;3.05;;;2.00;;
75916;SDS011;64595;50.148;14.334;2023-07-20T13:56:46;2.78;;;1.80;;
75916;SDS011;64595;50.148;14.334;2023-07-20T13:59:13;2.50;;;1.80;;
75916;SDS011;64595;50.148;14.334;2023-07-20T14:01:38;3.55;;;2.20;;
75916;SDS011;64595;50.148;14.334;2023-07-20T14:04:04;4.78;;;2.10;;
75916;SDS011;64595;50.148;14.334;2023-07-20T14:06:30;5.72;;;2.03;;
75916;SDS011;64595;50.148;14.334;2023-07-20T14:08:59;4.07;;;2.08;;
75916;SDS011;64595;50.148;14.334;2023-07-20T14:11:24;3.85;;;2.20;;
75916;SDS011;64595;50.148;14.334;2023-07-20T14:13:50;5.55;;;2.20;;
75916;SDS011;64595;50.148;14.334;2023-07-20T14:16:17;5.18;;;2.17;;
75916;SDS011;64595;50.148;14.334;2023-07-20T14:18:42;5.57;;;2.47;;
75916;SDS011;64595;50.148;14.334;2023-07-20T14:21:08;4.45;;;2.17;;
75916;SDS011;64595;50.148;14.334;2023-07-20T14:23:33;2.70;;;2.13;;
75916;SDS011;64595;50.148;14.334;2023-07-20T14:25:59;3.72;;;2.03;;
75916;SDS011;64595;50.148;14.334;2023-07-20T14:28:24;3.88;;;2.03;;
75916;SDS011;64595;50.148;14.334;2023-07-20T14:30:50;3.08;;;2.05;;
75916;SDS011;64595;50.148;14.334;2023-07-20T14:33:17;3.95;;;1.98;;
75916;SDS011;64595;50.148;14.334;2023-07-20T14:35:42;2.30;;;1.83;;
75916;SDS011;64595;50.148;14.334;2023-07-20T14:38:08;2.67;;;2.00;;
75916;SDS011;64595;50.148;14.334;2023-07-20T14:40:34;18.30;;;3.05;;
75916;SDS011;64595;50.148;14.334;2023-07-20T14:42:59;9.57;;;2.63;;
75916;SDS011;64595;50.148;14.334;2023-07-20T14:45:25;7.40;;;2.20;;
75916;SDS011;64595;50.148;14.334;2023-07-20T14:47:50;4.63;;;2.40;;